Airfield :
LOGIN :

Register | Disclaimer

   EN    FR    IT 

 










Legend :    VFR   Marginal VFR   IFR   Intensive IFR   Very Intensive IFR
Visi :
Ceiling :
>= 8 km
>= 3000ft
5 to 8 km
1000 to 3000 ft
1500m to 5 km
500 to 1000 ft
800 to 1500m
200 to 500 ft
< 800m
< 200 ft
Symbols :   Thunderstorms  Fog  Heavy snow  Heavy precipitations  Wind > 20 kt
SIGMETs :     Misc.  Thunderstorms  Icing  Turbulence  Mountain Waves  Volcanic Ashes






- Airport Elevation : 616 ft
- IATA code : PUF


LFBP - Pau

CURRENT METAR :
  • 192100Z AUTO 26004KT 230V300 9999 BKN010/// BKN030/// BKN035/// ///TCU 20/18 Q1013 TEMPO 27015G25KT 4000 SHRA FEW050CB BKN060TCU

EXPIRED METARs :
  • 192030Z AUTO 28006KT 9999 FEW012/// SCT030/// BKN058/// ///CB 20/18 Q1013 TEMPO 27015G25KT 4000 SHRA
  • 192000Z AUTO 28007KT 9999 FEW018/// SCT041/// BKN056/// ///CB 20/18 Q1012 TEMPO 4000 SHRA BECMG SCT025
  • 191930Z AUTO 30006KT 270V330 9999 BKN042/// BKN050/// BKN078/// ///CB 21/17 Q1013 TEMPO 4000 SHRA BECMG SCT025
  • 191900Z AUTO 32007KT 9999 FEW045/// SCT072/// BKN086/// ///CB 22/17 Q1012 TEMPO 27015G25KT 4000 SHRA
  • 191830Z AUTO 33010KT 9999 FEW096/// ///CB 22/17 Q1012 TEMPO 27015G25KT 4000 SHRA

TAF AMD TAF LFBP
Valid from the 19 at 19:00 until the 20 at 18:00 UTC


191952Z 1919/2018 29008KT 9999 SCT025
TEMPO 1919/1923 4000 SHRA FEW050CB BKN060TCU
PROB40
TEMPO 1919/1922 27015G25KT TSRA BKN050CB
PROB30
TEMPO 2005/2008 4000 TSRA BKN080CB
TEMPO 2012/2018 4000 SHRA BKN045TCU



MET'MAP, your aeronautical weather chart ! - Copyright ORBIFLY December 2007 - Disclaimer

ORBIFLY MET'MAP TEAM :

Programming & Development : Alexandra Zaïnal
Concept & original design : Baudouin d'Aumeries
Assistance for programming : Marc-Olivier Méhu
Technical & hardware support : Manuel Goepfert

Contact : metmap@orbifly.com




SOURCES & CREDITS :

   NOAA